sensor_id;sensor_type;location;lat;lon;timestamp;P1;durP1;ratioP1;P2;durP2;ratioP2
78895;SDS011;68284;59.124;37.910;2024-02-21T00:00:27;380.10;;;130.90;;
78895;SDS011;68284;59.124;37.910;2024-02-21T00:02:54;384.70;;;136.40;;
78895;SDS011;68284;59.124;37.910;2024-02-21T00:05:21;386.10;;;129.93;;
78895;SDS011;68284;59.124;37.910;2024-02-21T00:07:49;393.75;;;136.90;;
78895;SDS011;68284;59.124;37.910;2024-02-21T00:10:15;385.83;;;132.95;;
78895;SDS011;68284;59.124;37.910;2024-02-21T00:12:42;385.48;;;134.60;;
78895;SDS011;68284;59.124;37.910;2024-02-21T00:15:09;382.10;;;133.77;;
78895;SDS011;68284;59.124;37.910;2024-02-21T00:17:36;386.02;;;131.52;;
78895;SDS011;68284;59.124;37.910;2024-02-21T00:20:02;387.30;;;134.20;;
78895;SDS011;68284;59.124;37.910;2024-02-21T00:22:29;387.77;;;136.45;;
78895;SDS011;68284;59.124;37.910;2024-02-21T00:24:57;391.50;;;139.38;;
78895;SDS011;68284;59.124;37.910;2024-02-21T00:27:24;385.23;;;134.80;;
78895;SDS011;68284;59.124;37.910;2024-02-21T00:29:51;386.48;;;128.05;;
78895;SDS011;68284;59.124;37.910;2024-02-21T00:32:17;385.63;;;134.13;;
78895;SDS011;68284;59.124;37.910;2024-02-21T00:34:44;385.00;;;133.20;;
78895;SDS011;68284;59.124;37.910;2024-02-21T00:37:10;381.67;;;131.80;;
78895;SDS011;68284;59.124;37.910;2024-02-21T00:39:36;380.95;;;131.05;;
78895;SDS011;68284;59.124;37.910;2024-02-21T00:42:03;382.70;;;128.05;;
78895;SDS011;68284;59.124;37.910;2024-02-21T00:44:29;389.48;;;131.27;;
78895;SDS011;68284;59.124;37.910;2024-02-21T00:46:57;385.92;;;135.85;;
78895;SDS011;68284;59.124;37.910;2024-02-21T00:49:23;387.25;;;133.57;;
78895;SDS011;68284;59.124;37.910;2024-02-21T00:51:50;388.25;;;132.25;;
78895;SDS011;68284;59.124;37.910;2024-02-21T00:54:16;382.08;;;133.38;;
78895;SDS011;68284;59.124;37.910;2024-02-21T00:56:43;383.65;;;126.22;;
78895;SDS011;68284;59.124;37.910;2024-02-21T00:59:09;379.58;;;128.75;;
78895;SDS011;68284;59.124;37.910;2024-02-21T01:01:35;383.92;;;131.95;;
78895;SDS011;68284;59.124;37.910;2024-02-21T01:04:02;387.65;;;127.72;;
78895;SDS011;68284;59.124;37.910;2024-02-21T01:06:28;387.23;;;130.18;;
78895;SDS011;68284;59.124;37.910;2024-02-21T01:08:56;383.05;;;128.40;;
78895;SDS011;68284;59.124;37.910;2024-02-21T01:11:22;385.02;;;132.55;;
78895;SDS011;68284;59.124;37.910;2024-02-21T01:13:49;392.90;;;141.30;;
78895;SDS011;68284;59.124;37.910;2024-02-21T01:16:15;381.15;;;128.05;;
78895;SDS011;68284;59.124;37.910;2024-02-21T01:18:41;390.50;;;133.82;;
78895;SDS011;68284;59.124;37.910;2024-02-21T01:21:08;383.60;;;133.20;;
78895;SDS011;68284;59.124;37.910;2024-02-21T01:23:36;384.10;;;128.27;;
78895;SDS011;68284;59.124;37.910;2024-02-21T01:26:03;389.73;;;134.75;;
78895;SDS011;68284;59.124;37.910;2024-02-21T01:28:33;388.45;;;131.88;;
78895;SDS011;68284;59.124;37.910;2024-02-21T01:30:59;384.55;;;130.60;;
78895;SDS011;68284;59.124;37.910;2024-02-21T01:33:26;388.88;;;135.80;;
78895;SDS011;68284;59.124;37.910;2024-02-21T01:35:52;385.60;;;130.02;;
78895;SDS011;68284;59.124;37.910;2024-02-21T01:38:19;389.10;;;135.23;;
78895;SDS011;68284;59.124;37.910;2024-02-21T01:40:46;389.77;;;138.40;;
78895;SDS011;68284;59.124;37.910;2024-02-21T01:43:17;391.27;;;138.88;;
78895;SDS011;68284;59.124;37.910;2024-02-21T01:45:47;390.95;;;130.82;;
78895;SDS011;68284;59.124;37.910;2024-02-21T01:48:19;391.65;;;137.90;;
78895;SDS011;68284;59.124;37.910;2024-02-21T01:50:45;389.85;;;130.60;;
78895;SDS011;68284;59.124;37.910;2024-02-21T01:55:47;379.30;;;133.88;;
78895;SDS011;68284;59.124;37.910;2024-02-21T01:58:14;385.73;;;135.90;;
78895;SDS011;68284;59.124;37.910;2024-02-21T02:00:42;389.92;;;133.82;;
78895;SDS011;68284;59.124;37.910;2024-02-21T02:05:45;377.17;;;131.52;;
78895;SDS011;68284;59.124;37.910;2024-02-21T02:08:13;380.90;;;131.30;;
78895;SDS011;68284;59.124;37.910;2024-02-21T02:10:41;383.33;;;131.20;;
78895;SDS011;68284;59.124;37.910;2024-02-21T02:13:08;391.58;;;131.57;;
78895;SDS011;68284;59.124;37.910;2024-02-21T02:15:42;390.10;;;137.30;;
78895;SDS011;68284;59.124;37.910;2024-02-21T02:18:09;386.48;;;131.68;;
78895;SDS011;68284;59.124;37.910;2024-02-21T02:20:36;389.88;;;134.20;;
78895;SDS011;68284;59.124;37.910;2024-02-21T02:23:07;385.85;;;133.27;;
78895;SDS011;68284;59.124;37.910;2024-02-21T02:25:38;383.20;;;134.07;;
78895;SDS011;68284;59.124;37.910;2024-02-21T02:28:08;387.88;;;130.85;;
78895;SDS011;68284;59.124;37.910;2024-02-21T02:30:35;388.55;;;130.52;;
78895;SDS011;68284;59.124;37.910;2024-02-21T02:33:02;384.42;;;134.68;;
78895;SDS011;68284;59.124;37.910;2024-02-21T02:35:29;382.20;;;133.02;;
78895;SDS011;68284;59.124;37.910;2024-02-21T02:37:56;379.33;;;128.38;;
78895;SDS011;68284;59.124;37.910;2024-02-21T02:40:23;389.77;;;135.90;;
78895;SDS011;68284;59.124;37.910;2024-02-21T02:42:50;387.45;;;131.82;;
78895;SDS011;68284;59.124;37.910;2024-02-21T02:45:18;386.42;;;129.32;;
78895;SDS011;68284;59.124;37.910;2024-02-21T02:47:44;386.38;;;130.18;;
78895;SDS011;68284;59.124;37.910;2024-02-21T02:50:14;385.67;;;130.38;;
78895;SDS011;68284;59.124;37.910;2024-02-21T02:52:40;388.35;;;134.73;;
78895;SDS011;68284;59.124;37.910;2024-02-21T02:55:07;390.80;;;132.68;;
78895;SDS011;68284;59.124;37.910;2024-02-21T02:57:33;384.42;;;132.85;;
78895;SDS011;68284;59.124;37.910;2024-02-21T03:00:00;391.13;;;131.85;;
78895;SDS011;68284;59.124;37.910;2024-02-21T03:02:26;392.67;;;138.55;;
78895;SDS011;68284;59.124;37.910;2024-02-21T03:04:53;389.58;;;138.52;;
78895;SDS011;68284;59.124;37.910;2024-02-21T03:07:19;380.90;;;128.15;;
78895;SDS011;68284;59.124;37.910;2024-02-21T03:09:46;380.55;;;131.75;;
78895;SDS011;68284;59.124;37.910;2024-02-21T03:12:13;384.88;;;132.43;;
78895;SDS011;68284;59.124;37.910;2024-02-21T03:14:44;393.45;;;139.30;;
78895;SDS011;68284;59.124;37.910;2024-02-21T03:17:13;383.77;;;128.85;;
78895;SDS011;68284;59.124;37.910;2024-02-21T03:19:41;387.02;;;132.82;;
78895;SDS011;68284;59.124;37.910;2024-02-21T03:22:08;392.42;;;135.70;;
78895;SDS011;68284;59.124;37.910;2024-02-21T03:24:34;393.33;;;138.90;;
78895;SDS011;68284;59.124;37.910;2024-02-21T03:27:01;392.02;;;140.32;;
78895;SDS011;68284;59.124;37.910;2024-02-21T03:29:28;385.83;;;134.30;;
78895;SDS011;68284;59.124;37.910;2024-02-21T03:31:54;386.88;;;129.68;;
78895;SDS011;68284;59.124;37.910;2024-02-21T03:34:20;388.52;;;134.95;;
78895;SDS011;68284;59.124;37.910;2024-02-21T03:36:48;396.20;;;146.18;;
78895;SDS011;68284;59.124;37.910;2024-02-21T03:39:14;390.60;;;132.70;;
78895;SDS011;68284;59.124;37.910;2024-02-21T03:41:40;387.20;;;131.48;;
78895;SDS011;68284;59.124;37.910;2024-02-21T03:44:07;387.85;;;136.32;;
78895;SDS011;68284;59.124;37.910;2024-02-21T03:46:33;387.50;;;130.80;;
78895;SDS011;68284;59.124;37.910;2024-02-21T03:48:59;388.35;;;133.35;;
78895;SDS011;68284;59.124;37.910;2024-02-21T03:51:26;385.92;;;132.45;;
78895;SDS011;68284;59.124;37.910;2024-02-21T03:53:56;383.20;;;133.55;;
78895;SDS011;68284;59.124;37.910;2024-02-21T03:58:49;377.50;;;134.23;;
78895;SDS011;68284;59.124;37.910;2024-02-21T04:01:16;383.88;;;131.73;;
78895;SDS011;68284;59.124;37.910;2024-02-21T04:03:43;388.13;;;135.90;;
78895;SDS011;68284;59.124;37.910;2024-02-21T04:06:09;379.23;;;128.38;;
78895;SDS011;68284;59.124;37.910;2024-02-21T04:08:37;383.50;;;127.97;;
78895;SDS011;68284;59.124;37.910;2024-02-21T04:11:04;386.42;;;133.45;;
78895;SDS011;68284;59.124;37.910;2024-02-21T04:13:31;387.75;;;132.02;;
78895;SDS011;68284;59.124;37.910;2024-02-21T04:15:57;381.20;;;132.55;;
78895;SDS011;68284;59.124;37.910;2024-02-21T04:18:25;383.98;;;135.13;;
78895;SDS011;68284;59.124;37.910;2024-02-21T04:20:52;385.08;;;129.35;;
78895;SDS011;68284;59.124;37.910;2024-02-21T04:23:18;382.27;;;132.82;;
78895;SDS011;68284;59.124;37.910;2024-02-21T04:25:44;386.23;;;128.88;;
78895;SDS011;68284;59.124;37.910;2024-02-21T04:28:12;380.75;;;134.23;;
78895;SDS011;68284;59.124;37.910;2024-02-21T04:30:39;386.27;;;130.35;;
78895;SDS011;68284;59.124;37.910;2024-02-21T04:33:06;382.45;;;132.13;;
78895;SDS011;68284;59.124;37.910;2024-02-21T04:35:32;384.08;;;130.13;;
78895;SDS011;68284;59.124;37.910;2024-02-21T04:37:58;380.08;;;130.27;;
78895;SDS011;68284;59.124;37.910;2024-02-21T04:40:24;382.40;;;132.38;;
78895;SDS011;68284;59.124;37.910;2024-02-21T04:42:51;383.23;;;132.02;;
78895;SDS011;68284;59.124;37.910;2024-02-21T04:45:17;384.15;;;127.93;;
78895;SDS011;68284;59.124;37.910;2024-02-21T04:47:43;381.95;;;132.98;;
78895;SDS011;68284;59.124;37.910;2024-02-21T04:50:10;385.42;;;130.38;;
78895;SDS011;68284;59.124;37.910;2024-02-21T04:52:36;383.70;;;128.00;;
78895;SDS011;68284;59.124;37.910;2024-02-21T04:55:03;383.38;;;127.80;;
78895;SDS011;68284;59.124;37.910;2024-02-21T04:57:29;376.98;;;132.25;;
78895;SDS011;68284;59.124;37.910;2024-02-21T04:59:56;383.50;;;129.20;;
78895;SDS011;68284;59.124;37.910;2024-02-21T05:02:24;383.02;;;133.48;;
78895;SDS011;68284;59.124;37.910;2024-02-21T05:04:52;384.50;;;136.43;;
78895;SDS011;68284;59.124;37.910;2024-02-21T05:07:19;390.55;;;130.38;;
78895;SDS011;68284;59.124;37.910;2024-02-21T05:09:47;388.50;;;131.35;;
78895;SDS011;68284;59.124;37.910;2024-02-21T05:12:15;379.13;;;128.80;;
78895;SDS011;68284;59.124;37.910;2024-02-21T05:14:41;387.02;;;135.63;;
78895;SDS011;68284;59.124;37.910;2024-02-21T05:17:07;383.85;;;127.20;;
78895;SDS011;68284;59.124;37.910;2024-02-21T05:19:34;384.92;;;130.63;;
78895;SDS011;68284;59.124;37.910;2024-02-21T05:22:00;382.05;;;131.95;;
78895;SDS011;68284;59.124;37.910;2024-02-21T05:24:27;386.48;;;133.85;;
78895;SDS011;68284;59.124;37.910;2024-02-21T05:26:53;390.15;;;133.50;;
78895;SDS011;68284;59.124;37.910;2024-02-21T05:29:20;385.02;;;131.18;;
78895;SDS011;68284;59.124;37.910;2024-02-21T05:34:19;383.65;;;127.78;;
78895;SDS011;68284;59.124;37.910;2024-02-21T05:36:46;381.85;;;132.23;;
78895;SDS011;68284;59.124;37.910;2024-02-21T05:39:13;388.52;;;130.45;;
78895;SDS011;68284;59.124;37.910;2024-02-21T05:41:40;389.83;;;135.25;;
78895;SDS011;68284;59.124;37.910;2024-02-21T05:44:06;388.50;;;132.10;;
78895;SDS011;68284;59.124;37.910;2024-02-21T05:46:33;390.67;;;137.27;;
78895;SDS011;68284;59.124;37.910;2024-02-21T05:48:59;377.77;;;125.97;;
78895;SDS011;68284;59.124;37.910;2024-02-21T05:51:26;405.90;;;134.95;;
78895;SDS011;68284;59.124;37.910;2024-02-21T05:53:52;433.00;;;150.32;;
78895;SDS011;68284;59.124;37.910;2024-02-21T05:56:18;439.75;;;145.38;;
78895;SDS011;68284;59.124;37.910;2024-02-21T05:58:45;436.60;;;143.25;;
78895;SDS011;68284;59.124;37.910;2024-02-21T06:01:11;443.67;;;152.20;;
78895;SDS011;68284;59.124;37.910;2024-02-21T06:03:37;450.15;;;147.68;;
78895;SDS011;68284;59.124;37.910;2024-02-21T06:06:04;444.30;;;149.68;;
78895;SDS011;68284;59.124;37.910;2024-02-21T06:08:31;441.35;;;148.35;;
78895;SDS011;68284;59.124;37.910;2024-02-21T06:10:58;453.02;;;147.48;;
78895;SDS011;68284;59.124;37.910;2024-02-21T06:13:24;466.77;;;149.82;;
78895;SDS011;68284;59.124;37.910;2024-02-21T06:15:50;495.33;;;162.10;;
78895;SDS011;68284;59.124;37.910;2024-02-21T06:18:17;498.70;;;162.43;;
78895;SDS011;68284;59.124;37.910;2024-02-21T06:20:43;486.17;;;155.45;;
78895;SDS011;68284;59.124;37.910;2024-02-21T06:23:12;448.90;;;149.70;;
78895;SDS011;68284;59.124;37.910;2024-02-21T06:25:40;469.90;;;156.68;;
78895;SDS011;68284;59.124;37.910;2024-02-21T06:28:06;477.27;;;155.65;;
78895;SDS011;68284;59.124;37.910;2024-02-21T06:30:33;488.17;;;157.60;;
78895;SDS011;68284;59.124;37.910;2024-02-21T06:32:59;481.67;;;156.65;;
78895;SDS011;68284;59.124;37.910;2024-02-21T06:35:26;482.88;;;156.40;;
78895;SDS011;68284;59.124;37.910;2024-02-21T06:37:52;474.55;;;159.00;;
78895;SDS011;68284;59.124;37.910;2024-02-21T06:40:20;473.25;;;155.50;;
78895;SDS011;68284;59.124;37.910;2024-02-21T06:42:48;472.05;;;162.07;;
78895;SDS011;68284;59.124;37.910;2024-02-21T06:45:15;470.98;;;159.35;;
78895;SDS011;68284;59.124;37.910;2024-02-21T06:47:42;471.00;;;160.40;;
78895;SDS011;68284;59.124;37.910;2024-02-21T06:50:09;469.50;;;162.20;;
78895;SDS011;68284;59.124;37.910;2024-02-21T06:52:36;460.15;;;156.38;;
78895;SDS011;68284;59.124;37.910;2024-02-21T06:55:02;436.98;;;144.40;;
78895;SDS011;68284;59.124;37.910;2024-02-21T06:57:30;442.65;;;153.38;;
78895;SDS011;68284;59.124;37.910;2024-02-21T07:02:22;437.05;;;154.27;;
78895;SDS011;68284;59.124;37.910;2024-02-21T07:04:49;438.83;;;152.30;;
78895;SDS011;68284;59.124;37.910;2024-02-21T07:07:16;431.38;;;148.15;;
78895;SDS011;68284;59.124;37.910;2024-02-21T07:09:42;434.30;;;148.93;;
78895;SDS011;68284;59.124;37.910;2024-02-21T07:12:09;431.23;;;149.60;;
78895;SDS011;68284;59.124;37.910;2024-02-21T07:14:35;435.08;;;149.65;;
78895;SDS011;68284;59.124;37.910;2024-02-21T07:17:03;432.35;;;143.23;;
78895;SDS011;68284;59.124;37.910;2024-02-21T07:19:31;433.40;;;148.18;;
78895;SDS011;68284;59.124;37.910;2024-02-21T07:21:57;436.95;;;144.10;;
78895;SDS011;68284;59.124;37.910;2024-02-21T07:24:24;431.67;;;141.30;;
78895;SDS011;68284;59.124;37.910;2024-02-21T07:26:51;436.67;;;142.68;;
78895;SDS011;68284;59.124;37.910;2024-02-21T07:29:17;432.70;;;139.75;;
78895;SDS011;68284;59.124;37.910;2024-02-21T07:31:44;429.17;;;146.90;;
78895;SDS011;68284;59.124;37.910;2024-02-21T07:34:10;434.13;;;145.43;;
78895;SDS011;68284;59.124;37.910;2024-02-21T07:36:37;430.52;;;144.30;;
78895;SDS011;68284;59.124;37.910;2024-02-21T07:39:04;443.30;;;144.00;;
78895;SDS011;68284;59.124;37.910;2024-02-21T07:41:31;439.17;;;147.70;;
78895;SDS011;68284;59.124;37.910;2024-02-21T07:43:58;438.00;;;145.48;;
78895;SDS011;68284;59.124;37.910;2024-02-21T07:46:24;432.83;;;138.98;;
78895;SDS011;68284;59.124;37.910;2024-02-21T07:48:51;436.25;;;144.02;;
78895;SDS011;68284;59.124;37.910;2024-02-21T07:51:17;401.02;;;134.25;;
78895;SDS011;68284;59.124;37.910;2024-02-21T07:53:44;402.75;;;128.27;;
78895;SDS011;68284;59.124;37.910;2024-02-21T07:56:12;402.33;;;130.52;;
78895;SDS011;68284;59.124;37.910;2024-02-21T07:58:38;409.75;;;133.07;;
78895;SDS011;68284;59.124;37.910;2024-02-21T08:01:04;409.70;;;131.57;;
78895;SDS011;68284;59.124;37.910;2024-02-21T08:03:31;410.08;;;130.63;;
78895;SDS011;68284;59.124;37.910;2024-02-21T08:05:57;410.65;;;134.43;;
78895;SDS011;68284;59.124;37.910;2024-02-21T08:08:33;406.85;;;133.13;;
78895;SDS011;68284;59.124;37.910;2024-02-21T08:10:59;403.95;;;128.82;;
78895;SDS011;68284;59.124;37.910;2024-02-21T08:13:26;404.45;;;132.32;;
78895;SDS011;68284;59.124;37.910;2024-02-21T08:15:54;404.52;;;130.70;;
78895;SDS011;68284;59.124;37.910;2024-02-21T08:18:20;403.65;;;131.95;;
78895;SDS011;68284;59.124;37.910;2024-02-21T08:20:47;401.60;;;132.55;;
78895;SDS011;68284;59.124;37.910;2024-02-21T08:23:15;398.80;;;129.32;;
78895;SDS011;68284;59.124;37.910;2024-02-21T08:25:44;395.83;;;128.38;;
78895;SDS011;68284;59.124;37.910;2024-02-21T08:28:10;391.75;;;128.80;;
78895;SDS011;68284;59.124;37.910;2024-02-21T08:30:37;397.92;;;127.00;;
78895;SDS011;68284;59.124;37.910;2024-02-21T08:33:03;391.55;;;123.38;;
78895;SDS011;68284;59.124;37.910;2024-02-21T08:35:30;389.85;;;125.85;;
78895;SDS011;68284;59.124;37.910;2024-02-21T08:37:56;390.55;;;120.88;;
78895;SDS011;68284;59.124;37.910;2024-02-21T08:40:22;385.00;;;120.55;;
78895;SDS011;68284;59.124;37.910;2024-02-21T08:42:49;385.67;;;121.47;;
78895;SDS011;68284;59.124;37.910;2024-02-21T08:45:15;379.33;;;123.90;;
78895;SDS011;68284;59.124;37.910;2024-02-21T08:47:42;380.88;;;119.43;;
78895;SDS011;68284;59.124;37.910;2024-02-21T08:50:08;376.25;;;118.70;;
78895;SDS011;68284;59.124;37.910;2024-02-21T08:52:38;367.15;;;116.80;;
78895;SDS011;68284;59.124;37.910;2024-02-21T08:55:05;363.45;;;116.57;;
78895;SDS011;68284;59.124;37.910;2024-02-21T09:00:05;367.05;;;120.55;;
78895;SDS011;68284;59.124;37.910;2024-02-21T09:02:40;361.67;;;117.28;;
78895;SDS011;68284;59.124;37.910;2024-02-21T09:05:09;350.27;;;112.18;;
78895;SDS011;68284;59.124;37.910;2024-02-21T09:07:35;336.63;;;112.03;;
78895;SDS011;68284;59.124;37.910;2024-02-21T09:10:02;342.75;;;110.78;;
78895;SDS011;68284;59.124;37.910;2024-02-21T09:12:29;325.95;;;105.32;;
78895;SDS011;68284;59.124;37.910;2024-02-21T09:14:55;319.00;;;104.72;;
78895;SDS011;68284;59.124;37.910;2024-02-21T09:17:22;305.10;;;101.63;;
78895;SDS011;68284;59.124;37.910;2024-02-21T09:19:52;298.48;;;104.97;;
78895;SDS011;68284;59.124;37.910;2024-02-21T09:22:21;291.33;;;103.97;;
78895;SDS011;68284;59.124;37.910;2024-02-21T09:24:48;277.85;;;94.10;;
78895;SDS011;68284;59.124;37.910;2024-02-21T09:27:14;292.55;;;97.95;;
78895;SDS011;68284;59.124;37.910;2024-02-21T09:29:40;288.98;;;97.20;;
78895;SDS011;68284;59.124;37.910;2024-02-21T09:32:07;286.35;;;96.85;;
78895;SDS011;68284;59.124;37.910;2024-02-21T09:34:33;295.15;;;102.97;;
78895;SDS011;68284;59.124;37.910;2024-02-21T09:37:00;300.35;;;103.88;;
78895;SDS011;68284;59.124;37.910;2024-02-21T09:39:26;300.90;;;101.60;;
78895;SDS011;68284;59.124;37.910;2024-02-21T09:42:03;298.63;;;102.05;;
78895;SDS011;68284;59.124;37.910;2024-02-21T09:44:37;298.58;;;100.32;;
78895;SDS011;68284;59.124;37.910;2024-02-21T09:47:10;303.23;;;105.65;;
78895;SDS011;68284;59.124;37.910;2024-02-21T09:49:45;300.80;;;98.93;;
78895;SDS011;68284;59.124;37.910;2024-02-21T09:52:15;298.20;;;103.63;;
78895;SDS011;68284;59.124;37.910;2024-02-21T09:54:43;293.17;;;98.03;;
78895;SDS011;68284;59.124;37.910;2024-02-21T09:57:10;284.67;;;99.53;;
78895;SDS011;68284;59.124;37.910;2024-02-21T09:59:39;282.85;;;98.13;;
78895;SDS011;68284;59.124;37.910;2024-02-21T10:02:07;297.33;;;98.82;;
78895;SDS011;68284;59.124;37.910;2024-02-21T10:04:34;284.13;;;95.72;;
78895;SDS011;68284;59.124;37.910;2024-02-21T10:07:00;278.20;;;95.88;;
78895;SDS011;68284;59.124;37.910;2024-02-21T10:09:27;272.77;;;94.38;;
78895;SDS011;68284;59.124;37.910;2024-02-21T10:12:07;270.02;;;94.57;;
78895;SDS011;68284;59.124;37.910;2024-02-21T10:14:35;264.73;;;92.43;;
78895;SDS011;68284;59.124;37.910;2024-02-21T10:17:01;254.52;;;89.93;;
78895;SDS011;68284;59.124;37.910;2024-02-21T10:19:29;244.20;;;87.80;;
78895;SDS011;68284;59.124;37.910;2024-02-21T10:22:06;238.40;;;90.30;;
78895;SDS011;68284;59.124;37.910;2024-02-21T10:24:35;241.02;;;89.45;;
78895;SDS011;68284;59.124;37.910;2024-02-21T10:27:05;241.88;;;90.43;;
78895;SDS011;68284;59.124;37.910;2024-02-21T10:29:39;224.68;;;88.28;;
78895;SDS011;68284;59.124;37.910;2024-02-21T10:34:38;222.80;;;83.20;;
78895;SDS011;68284;59.124;37.910;2024-02-21T10:37:06;230.40;;;85.30;;
78895;SDS011;68284;59.124;37.910;2024-02-21T10:39:34;231.40;;;88.30;;
78895;SDS011;68284;59.124;37.910;2024-02-21T10:42:03;237.32;;;88.10;;
78895;SDS011;68284;59.124;37.910;2024-02-21T10:44:31;246.30;;;90.55;;
78895;SDS011;68284;59.124;37.910;2024-02-21T10:46:59;248.57;;;92.13;;
78895;SDS011;68284;59.124;37.910;2024-02-21T10:49:30;244.95;;;91.13;;
78895;SDS011;68284;59.124;37.910;2024-02-21T10:52:17;253.30;;;93.07;;
78895;SDS011;68284;59.124;37.910;2024-02-21T10:55:10;253.95;;;94.50;;
78895;SDS011;68284;59.124;37.910;2024-02-21T10:57:52;259.05;;;92.07;;
78895;SDS011;68284;59.124;37.910;2024-02-21T11:00:19;251.25;;;90.35;;
78895;SDS011;68284;59.124;37.910;2024-02-21T11:02:48;237.82;;;87.50;;
78895;SDS011;68284;59.124;37.910;2024-02-21T11:07:41;240.02;;;91.22;;
78895;SDS011;68284;59.124;37.910;2024-02-21T11:10:20;223.57;;;84.45;;
78895;SDS011;68284;59.124;37.910;2024-02-21T11:12:52;199.82;;;80.07;;
78895;SDS011;68284;59.124;37.910;2024-02-21T11:15:39;159.25;;;76.38;;
78895;SDS011;68284;59.124;37.910;2024-02-21T11:18:06;124.65;;;63.08;;
78895;SDS011;68284;59.124;37.910;2024-02-21T11:20:36;87.95;;;54.95;;
78895;SDS011;68284;59.124;37.910;2024-02-21T11:23:03;67.93;;;46.22;;
78895;SDS011;68284;59.124;37.910;2024-02-21T11:25:30;30.05;;;25.25;;
78895;SDS011;68284;59.124;37.910;2024-02-21T11:28:02;14.73;;;13.23;;
78895;SDS011;68284;59.124;37.910;2024-02-21T11:30:30;16.38;;;13.98;;
78895;SDS011;68284;59.124;37.910;2024-02-21T11:33:00;11.50;;;9.35;;
78895;SDS011;68284;59.124;37.910;2024-02-21T11:35:34;9.32;;;6.75;;
78895;SDS011;68284;59.124;37.910;2024-02-21T11:38:09;10.90;;;7.65;;
78895;SDS011;68284;59.124;37.910;2024-02-21T11:40:38;13.25;;;10.60;;
78895;SDS011;68284;59.124;37.910;2024-02-21T11:43:06;11.35;;;10.20;;
78895;SDS011;68284;59.124;37.910;2024-02-21T11:45:33;12.07;;;10.25;;
78895;SDS011;68284;59.124;37.910;2024-02-21T11:48:00;10.85;;;9.70;;
78895;SDS011;68284;59.124;37.910;2024-02-21T11:50:29;8.73;;;5.88;;
78895;SDS011;68284;59.124;37.910;2024-02-21T11:52:57;9.27;;;8.30;;
78895;SDS011;68284;59.124;37.910;2024-02-21T11:55:23;8.93;;;6.53;;
78895;SDS011;68284;59.124;37.910;2024-02-21T12:00:16;9.40;;;7.07;;
78895;SDS011;68284;59.124;37.910;2024-02-21T12:02:46;10.88;;;8.80;;
78895;SDS011;68284;59.124;37.910;2024-02-21T12:05:13;10.80;;;8.63;;
78895;SDS011;68284;59.124;37.910;2024-02-21T12:07:40;13.57;;;9.95;;
78895;SDS011;68284;59.124;37.910;2024-02-21T12:10:10;12.57;;;10.20;;
78895;SDS011;68284;59.124;37.910;2024-02-21T12:12:37;10.63;;;8.90;;
78895;SDS011;68284;59.124;37.910;2024-02-21T12:15:05;13.25;;;9.18;;
78895;SDS011;68284;59.124;37.910;2024-02-21T12:17:33;15.20;;;8.63;;
78895;SDS011;68284;59.124;37.910;2024-02-21T12:20:03;11.50;;;8.35;;
78895;SDS011;68284;59.124;37.910;2024-02-21T12:22:31;10.18;;;7.10;;
78895;SDS011;68284;59.124;37.910;2024-02-21T12:25:02;12.30;;;8.35;;
78895;SDS011;68284;59.124;37.910;2024-02-21T12:27:30;12.13;;;7.72;;
78895;SDS011;68284;59.124;37.910;2024-02-21T12:29:56;10.98;;;8.98;;
78895;SDS011;68284;59.124;37.910;2024-02-21T12:32:22;9.75;;;8.52;;
78895;SDS011;68284;59.124;37.910;2024-02-21T12:34:48;12.38;;;8.10;;
78895;SDS011;68284;59.124;37.910;2024-02-21T12:37:15;10.20;;;7.57;;
78895;SDS011;68284;59.124;37.910;2024-02-21T12:39:41;11.80;;;7.80;;
78895;SDS011;68284;59.124;37.910;2024-02-21T12:42:08;10.07;;;8.90;;
78895;SDS011;68284;59.124;37.910;2024-02-21T12:44:37;11.07;;;8.48;;
78895;SDS011;68284;59.124;37.910;2024-02-21T12:47:03;13.20;;;9.80;;
78895;SDS011;68284;59.124;37.910;2024-02-21T12:49:30;12.95;;;10.02;;
78895;SDS011;68284;59.124;37.910;2024-02-21T12:51:57;16.80;;;12.88;;
78895;SDS011;68284;59.124;37.910;2024-02-21T12:54:24;16.30;;;12.15;;
78895;SDS011;68284;59.124;37.910;2024-02-21T12:56:51;17.98;;;13.82;;
78895;SDS011;68284;59.124;37.910;2024-02-21T12:59:17;17.77;;;15.98;;
78895;SDS011;68284;59.124;37.910;2024-02-21T13:01:44;19.73;;;14.73;;
78895;SDS011;68284;59.124;37.910;2024-02-21T13:04:10;27.13;;;24.05;;
78895;SDS011;68284;59.124;37.910;2024-02-21T13:06:37;43.63;;;38.92;;
78895;SDS011;68284;59.124;37.910;2024-02-21T13:09:04;65.68;;;46.97;;
78895;SDS011;68284;59.124;37.910;2024-02-21T13:11:36;80.63;;;53.67;;
78895;SDS011;68284;59.124;37.910;2024-02-21T13:14:03;103.85;;;63.28;;
78895;SDS011;68284;59.124;37.910;2024-02-21T13:16:30;111.30;;;61.25;;
78895;SDS011;68284;59.124;37.910;2024-02-21T13:18:56;108.40;;;62.78;;
78895;SDS011;68284;59.124;37.910;2024-02-21T13:21:22;122.18;;;65.30;;
78895;SDS011;68284;59.124;37.910;2024-02-21T13:23:49;140.02;;;67.55;;
78895;SDS011;68284;59.124;37.910;2024-02-21T13:26:15;140.43;;;70.53;;
78895;SDS011;68284;59.124;37.910;2024-02-21T13:28:41;154.13;;;74.20;;
78895;SDS011;68284;59.124;37.910;2024-02-21T13:31:10;183.75;;;77.40;;
78895;SDS011;68284;59.124;37.910;2024-02-21T13:33:37;191.23;;;82.03;;
78895;SDS011;68284;59.124;37.910;2024-02-21T13:36:04;215.90;;;82.38;;
78895;SDS011;68284;59.124;37.910;2024-02-21T13:38:30;221.25;;;85.57;;
78895;SDS011;68284;59.124;37.910;2024-02-21T13:40:57;249.07;;;90.10;;
78895;SDS011;68284;59.124;37.910;2024-02-21T13:43:23;300.17;;;104.22;;
78895;SDS011;68284;59.124;37.910;2024-02-21T13:45:55;346.30;;;107.25;;
78895;SDS011;68284;59.124;37.910;2024-02-21T13:48:24;444.98;;;128.70;;
78895;SDS011;68284;59.124;37.910;2024-02-21T13:50:50;493.15;;;140.30;;
78895;SDS011;68284;59.124;37.910;2024-02-21T13:53:17;486.83;;;138.93;;
78895;SDS011;68284;59.124;37.910;2024-02-21T13:55:47;518.72;;;149.40;;
78895;SDS011;68284;59.124;37.910;2024-02-21T13:58:13;512.58;;;147.05;;
78895;SDS011;68284;59.124;37.910;2024-02-21T14:00:40;500.27;;;149.68;;
78895;SDS011;68284;59.124;37.910;2024-02-21T14:03:06;511.05;;;148.25;;
78895;SDS011;68284;59.124;37.910;2024-02-21T14:05:32;511.33;;;154.13;;
78895;SDS011;68284;59.124;37.910;2024-02-21T14:08:00;502.13;;;152.20;;
78895;SDS011;68284;59.124;37.910;2024-02-21T14:10:27;470.48;;;146.80;;
78895;SDS011;68284;59.124;37.910;2024-02-21T14:15:20;446.15;;;139.32;;
78895;SDS011;68284;59.124;37.910;2024-02-21T14:17:47;450.58;;;140.10;;